x

Molasses Reef, Fl (mlrf1) Weather Station

8:00pm - Tue 22nd Jan 2019 All times are EST. -5 hours from GMT.

  • Wind
    30mph
  • Sea Temp 74°f
  • Air Temp 73°f
  • Sea Pressure 1024.9mb
  • Molasses Reef, Fl
  • Molasses Reef, Fl

More Historic Weather Station data

Upgrade to MSW Pro to gain access to the past 30 days of data for over 8000 Wavebouys and Weather Stations around the globe.

Join

Comparision Forecast

View Surf forecast
   
Tue 01/22 8:00pm 30
mph
1024.9mb 74f 73f
7:00pm 29
mph
- - -
6:00pm 29 32 mph 1024.3mb 74f 72f
5:00pm 30
mph
1024.4mb 74f 72f
4:00pm 31 34 mph 1024.3mb 74f 72f
3:00pm 28 31 mph 1024.7mb 74f 72f
2:00pm 28 31 mph 1024.8mb 74f 73f
1:00pm 29 32 mph 1025.6mb 74f 72f
12:00pm 30 33 mph 1026.3mb 74f 72f
11:00am 31 36 mph 1026.4mb 73f 72f
9:00am 29 32 mph 1025.7mb 73f 71f
8:00am 30 36 mph 1024.9mb 73f 71f
7:00am 24 28 mph 1024.7mb 74f 71f
5:00am 24 28 mph 1023.8mb 74f 71f
4:00am 26 29 mph 1023.6mb 74f 71f
3:00am 26
mph
1023.8mb 74f 71f
1:00am 23 26 mph 1024.6mb 74f 71f
12:00am 23 26 mph 1024.9mb 74f 71f
Mon 01/21 11:00pm 23 25 mph 1025.2mb 74f 71f
10:00pm 23 26 mph 1025.2mb 74f 70f
9:00pm 21 24 mph 1025mb 74f 70f
8:00pm 21 23 mph 1024.6mb 74f 70f
7:00pm 21 22 mph 1023.9mb 74f 67f
6:00pm 23 25 mph 1023mb 74f 67f
5:00pm 21 23 mph 1022.8mb 74f 66f
4:00pm 18 21 mph 1022.9mb 74f 65f
3:00pm 14 16 mph 1023mb 74f 63f
2:00pm 8 10 mph 1023.2mb 74f 62f
1:00pm 7 9 mph 1023.9mb 74f 60f
12:00pm 8 10 mph 1024.6mb 74f 57f
11:00am 8 10 mph 1024.7mb 74f 56f
10:00am 7 9 mph - 74f 55f
9:00am 13
mph
1024.2mb - 53f
8:00am 13
mph
- - 52f
7:00am 15 18 mph 1023.3mb 74f 50f
6:00am 18 21 mph 1022.7mb 74f 51f
5:00am 25 28 mph 1021.8mb 74f 51f
4:00am 24 28 mph 1021.3mb 73f 53f
3:00am 25
mph
1020.8mb - -
2:00am 24 28 mph 1020.9mb 74f 56f
12:00am 24 28 mph 1020.8mb 75f 60f
Sun 01/20 11:00pm 22 26 mph 1020.4mb 75f 62f
10:00pm 20 23 mph 1019.8mb 75f 62f
9:00pm 28 31 mph 1018.8mb 75f 64f
8:00pm 28 31 mph 1018.3mb 75f 64f
7:00pm 28 31 mph 1017.6mb 75f 65f
6:00pm 30 33 mph 1017mb 75f 66f
5:00pm 31 36 mph 1016.2mb 75f 67f
4:00pm 30 32 mph 1015.4mb 75f 68f
3:00pm 32 36 mph 1014.9mb 75f 69f
2:00pm 31 37 mph 1014.5mb 75f 69f
1:00pm 26 29 mph 1014.6mb 75f 69f
11:00am 26 30 mph 1015.3mb 75f 68f
8:00am 23 25 mph 1012.8mb 75f 76f
7:00am 25
mph
1012.2mb 75f 76f
5:00am 23 25 mph 1011.9mb 75f 76f
1:00am 23 25 mph 1013.4mb 75f 75f
12:00am 23 25 mph 1013.9mb 75f 75f
Sat 01/19 10:00pm 18 20 mph 1014.7mb 75f 75f
9:00pm 16
mph
- - -
8:00pm 16
mph
1015mb - 74f
7:00pm 15 16 mph 1015mb 75f 74f
6:00pm 11 13 mph 1015.4mb 75f 74f
5:00pm 13 14 mph 1015.4mb 75f 74f
4:00pm 10 11 mph 1015.6mb 75f 75f
3:00pm 10 11 mph 1016mb 76f 74f
2:00pm 14 15 mph 1016.4mb 75f 74f
1:00pm 14 15 mph 1017.3mb 75f 74f
12:00pm 15 17 mph 1018.3mb 75f 74f
11:00am 20 21 mph 1018.8mb 75f 73f
10:00am 21
mph
1018.9mb 75f 73f
9:00am 18 21 mph 1018.7mb 75f 73f
8:00am 16 17 mph 1018.2mb 75f 73f
7:00am 16 17 mph 1018.3mb 75f 73f
6:00am 15 17 mph 1018.3mb 76f 73f
5:00am 16 17 mph 1017.9mb 76f 73f
4:00am 11 15 mph 1018.2mb 76f 73f